To NAV CANADA Home Page Login to a new session Search on AWWS site Disclaimer Vers la page française équivalente Tips FAQ What's new on the site To the Forecasts and Observations / NOTAM section To "File a Flight Plan" website Publications and other links Update of the User's profile FIC Telephone Numbers My Weather Data Folder Route Weather Data Regional Weather Data Local Weather Data To the Forecasts and Observations / NOTAM section
Request Generated 04/24/2019 at 16:00:11 UTC . Weather information available at that time is displayed.

METAR/TAF

TALOYOAK/NU    

SPECI CYYH 241524Z 04008KT 5SM BR FEW001 FEW100 M23/M27 A2996 RMK FG1ST1AC1 ST TR AC TR VIS SE 1 FG 004 THK SLP152=
SPECI CYYH 241507Z 04008KT 2 1/2SM BR FEW001 M23/M27 A2997 RMK FG2ST1 ST TR VIS NE-SE 1/2 FG UP TO 004 THK SLP153=
METAR CYYH 241500Z 05008KT 15SM VCFG FEW001 FEW100 M24/M27 A2997 RMK ST1AC1 ST TR AC TR VIS W-NW 10 SLP153=
SPECI CYYH 241433Z 05008KT 15SM VCFG FEW001 FEW100 M24/M27 A2997 RMK ST1AC1 ST TR AC TR VIS W 10 SLP154=
SPECI CYYH 241412Z 02008KT 4SM BR FEW001 FEW010 M26/M29 A2997 RMK FG1ST1ST1 ST TR ST TR VIS VAR 2 TO 15 SLP154=
METAR CYYH 241400Z 01008KT 2SM BR FEW001 SCT010 M26/M30 A2997 RMK FG1ST1ST1 VIS VAR 1 TO 15 SLP154=
SPECI CYYH 241328Z 01008KT 2SM BR SCT001 SCT010 M27/M30 A2998 RMK FG2ST1ST1 VIS VAR 1 TO 4 SLP157=
SPECI CYYH 241317Z 02008KT 6SM BR FEW001 FEW004 SCT016 SCT094 M27/M31 A2998 RMK FG2ST1ST1SC1AS1 ST TR ST TR AS TR SLP157=
METAR CYYH 241300Z 02007KT 15SM FEW094 FEW220 M27/M31 A2998 RMK AC1CI1 AC TR CI TR FROIN SLP158=

TAF AMD CYYH 241456Z 2414/2424 04006KT P6SM FEW100 FEW220 TEMPO
2414/2420 2SM IC BR
FM242000 29008KT P6SM SCT020 SCT060
RMK NXT FCST BY 241800Z=
Your time UTC time
Weather data provided by Environment Canada and NAV CANADA